createdAt,value
2023-02-01T00:00:30.965Z,85.52
2023-02-01T00:02:57.571Z,85.66
2023-02-01T00:05:24.144Z,85.64
2023-02-01T00:07:51.243Z,85.20
2023-02-01T00:10:18.223Z,85.54
2023-02-01T00:12:45.336Z,85.76
2023-02-01T00:15:12.281Z,85.57
2023-02-01T00:17:38.932Z,85.09
2023-02-01T00:20:06.278Z,85.07
2023-02-01T00:22:32.909Z,85.15
2023-02-01T00:24:59.503Z,84.72
2023-02-01T00:27:26.089Z,84.94
2023-02-01T00:29:52.672Z,85.10
2023-02-01T00:32:19.246Z,85.18
2023-02-01T00:34:45.850Z,85.52
2023-02-01T00:37:12.427Z,85.43
2023-02-01T00:39:39.038Z,85.59
2023-02-01T00:42:05.945Z,85.63
2023-02-01T00:44:35.347Z,85.99
2023-02-01T00:47:02.197Z,85.63
2023-02-01T00:49:30.137Z,86.09
2023-02-01T00:51:57.024Z,85.69
2023-02-01T00:54:23.788Z,85.75
2023-02-01T00:56:50.457Z,85.72
2023-02-01T00:59:17.076Z,85.72
2023-02-01T01:01:43.956Z,85.92
2023-02-01T01:04:10.703Z,86.26
2023-02-01T01:06:37.327Z,85.88
2023-02-01T01:09:07.182Z,86.05
2023-02-01T01:11:36.819Z,86.10
2023-02-01T01:14:04.787Z,85.85
2023-02-01T01:16:33.420Z,85.60
2023-02-01T01:19:00.788Z,85.85
2023-02-01T01:21:28.125Z,86.07
2023-02-01T01:23:55.035Z,86.18
2023-02-01T01:26:28.494Z,85.94
2023-02-01T01:29:00.234Z,86.18
2023-02-01T01:31:27.630Z,86.13
2023-02-01T01:33:56.721Z,85.68
2023-02-01T01:36:24.207Z,85.76
2023-02-01T01:38:52.264Z,85.40
2023-02-01T01:41:22.327Z,85.15
2023-02-01T01:43:50.113Z,85.08
2023-02-01T01:46:37.148Z,85.31
2023-02-01T01:49:15.102Z,85.53
2023-02-01T01:51:50.386Z,85.69
2023-02-01T01:54:30.415Z,85.53
2023-02-01T01:57:05.524Z,85.48
2023-02-01T01:59:36.847Z,86.03
2023-02-01T02:02:05.362Z,85.52
2023-02-01T02:04:33.581Z,85.92
2023-02-01T02:07:10.745Z,85.92
2023-02-01T02:09:38.517Z,86.17
2023-02-01T02:12:05.633Z,86.02
2023-02-01T02:14:34.287Z,85.76
2023-02-01T02:17:13.066Z,85.74
2023-02-01T02:20:00.755Z,85.97
2023-02-01T02:22:42.481Z,86.16
2023-02-01T02:25:39.756Z,85.85
2023-02-01T02:28:37.574Z,86.02
2023-02-01T02:31:28.969Z,86.08
2023-02-01T02:34:16.531Z,86.26
2023-02-01T02:37:06.396Z,86.48
2023-02-01T02:40:17.857Z,86.51
2023-02-01T02:43:30.778Z,86.47
2023-02-01T02:46:27.315Z,86.71
2023-02-01T02:49:05.723Z,86.61
2023-02-01T02:51:57.627Z,86.55
2023-02-01T02:54:47.414Z,86.32
2023-02-01T02:57:35.067Z,86.19
2023-02-01T03:00:23.833Z,86.19
2023-02-01T03:03:09.823Z,86.24
2023-02-01T03:05:38.034Z,86.23
2023-02-01T03:08:13.604Z,86.13
2023-02-01T03:10:52.839Z,85.60
2023-02-01T03:13:39.358Z,85.57
2023-02-01T03:16:16.146Z,85.43
2023-02-01T03:19:06.773Z,85.73
2023-02-01T03:21:45.431Z,85.90
2023-02-01T03:24:45.538Z,85.64
2023-02-01T03:27:14.858Z,85.27
2023-02-01T03:30:00.672Z,84.97
2023-02-01T03:32:27.459Z,85.05
2023-02-01T03:34:54.986Z,85.41
2023-02-01T03:37:27.556Z,85.19
2023-02-01T03:40:12.596Z,85.02
2023-02-01T03:42:46.187Z,85.05
2023-02-01T03:45:12.932Z,84.70
2023-02-01T03:47:44.842Z,84.79
2023-02-01T03:50:18.595Z,84.68
2023-02-01T03:52:50.122Z,84.50
2023-02-01T03:55:21.317Z,84.85
2023-02-01T03:57:56.149Z,84.44
2023-02-01T04:00:27.080Z,84.85
2023-02-01T04:02:54.325Z,84.29
2023-02-01T04:05:21.398Z,84.25
2023-02-01T04:07:48.105Z,84.25
2023-02-01T04:10:14.790Z,83.67
2023-02-01T04:12:41.950Z,83.67
2023-02-01T04:15:09.260Z,82.77
2023-02-01T04:20:02.499Z,82.74
2023-02-01T04:22:29.920Z,82.96
2023-02-01T04:24:56.647Z,82.57
2023-02-01T04:29:50.696Z,82.19
2023-02-01T04:32:17.864Z,82.28
2023-02-01T04:34:44.553Z,82.24
2023-02-01T04:37:11.184Z,81.87
2023-02-01T04:39:37.843Z,81.70
2023-02-01T04:42:04.776Z,82.06
2023-02-01T04:44:31.417Z,82.03
2023-02-01T04:46:58.056Z,81.39
2023-02-01T04:49:26.484Z,81.94
2023-02-01T04:51:53.293Z,82.01
2023-02-01T04:54:20.073Z,81.90
2023-02-01T04:56:46.716Z,82.00
2023-02-01T04:59:13.478Z,81.62
2023-02-01T05:01:40.184Z,81.85
2023-02-01T05:04:06.857Z,82.16
2023-02-01T05:06:33.427Z,82.01
2023-02-01T05:09:00.064Z,82.14
2023-02-01T05:11:45.274Z,81.72
2023-02-01T05:14:12.123Z,81.93
2023-02-01T05:16:38.743Z,82.10
2023-02-01T05:19:05.379Z,81.91
2023-02-01T05:21:31.981Z,82.51
2023-02-01T05:24:10.585Z,81.92
2023-02-01T05:26:38.788Z,82.18
2023-02-01T05:29:06.406Z,82.44
2023-02-01T05:31:33.099Z,81.92
2023-02-01T05:33:59.845Z,82.07
2023-02-01T05:36:26.669Z,81.94
2023-02-01T05:38:53.370Z,82.06
2023-02-01T05:41:19.973Z,82.11
2023-02-01T05:43:46.614Z,82.26
2023-02-01T05:46:14.156Z,82.15
2023-02-01T05:48:41.562Z,82.19
2023-02-01T05:51:08.691Z,82.06
2023-02-01T05:53:35.335Z,81.67
2023-02-01T05:56:02.413Z,82.02
2023-02-01T06:00:54.732Z,81.50
2023-02-01T06:03:21.566Z,80.36
2023-02-01T06:05:48.804Z,79.43
2023-02-01T06:08:16.056Z,78.59
2023-02-01T06:10:42.736Z,79.38
2023-02-01T06:13:09.646Z,79.39
2023-02-01T06:15:38.426Z,79.04
2023-02-01T06:18:05.772Z,78.91
2023-02-01T06:20:32.349Z,78.75
2023-02-01T06:22:58.984Z,79.10
2023-02-01T06:25:25.642Z,79.23
2023-02-01T06:27:52.261Z,79.44
2023-02-01T06:30:19.000Z,79.75
2023-02-01T06:32:45.626Z,78.77
2023-02-01T06:35:16.986Z,78.71
2023-02-01T06:37:44.483Z,78.72
2023-02-01T06:40:11.685Z,79.13
2023-02-01T06:42:38.365Z,79.54
2023-02-01T06:45:05.305Z,79.69
2023-02-01T06:47:31.865Z,79.81
2023-02-01T06:49:58.420Z,79.11
2023-02-01T06:52:25.061Z,79.17
2023-02-01T06:54:51.696Z,79.44
2023-02-01T06:57:18.259Z,79.52
2023-02-01T06:59:44.846Z,79.63
2023-02-01T07:02:12.552Z,79.55
2023-02-01T07:04:39.339Z,79.43
2023-02-01T07:07:06.159Z,79.54
2023-02-01T07:09:32.879Z,80.21
2023-02-01T07:11:59.506Z,80.42
2023-02-01T07:14:26.084Z,79.94
2023-02-01T07:16:52.705Z,80.14
2023-02-01T07:19:19.245Z,79.97
2023-02-01T07:21:45.841Z,79.59
2023-02-01T07:24:12.423Z,79.47
2023-02-01T07:26:39.038Z,79.30
2023-02-01T07:29:05.639Z,79.34
2023-02-01T07:31:32.367Z,79.60
2023-02-01T07:33:59.706Z,78.89
2023-02-01T07:36:26.302Z,79.45
2023-02-01T07:38:56.148Z,78.94
2023-02-01T07:41:23.275Z,79.06
2023-02-01T07:43:51.820Z,78.71
2023-02-01T07:46:18.521Z,79.40
2023-02-01T08:07:57.300Z,77.53
2023-02-01T08:10:25.515Z,77.54
2023-02-01T08:12:52.977Z,77.27
2023-02-01T08:15:19.893Z,77.08
2023-02-01T08:17:50.499Z,77.55
2023-02-01T08:20:18.659Z,77.41
2023-02-01T08:22:45.994Z,77.24
2023-02-01T08:25:12.951Z,77.19
2023-02-01T08:27:39.601Z,77.19
2023-02-01T08:30:08.291Z,76.94
2023-02-01T08:32:35.621Z,76.84
2023-02-01T08:35:03.088Z,77.08
2023-02-01T08:37:29.928Z,76.94
2023-02-01T08:39:56.634Z,76.90
2023-02-01T08:42:42.153Z,76.95
2023-02-01T08:45:09.608Z,75.87
2023-02-01T08:47:36.673Z,76.16
2023-02-01T08:50:03.908Z,75.94
2023-02-01T08:52:30.645Z,75.93
2023-02-01T08:54:57.206Z,75.81
2023-02-01T08:57:24.328Z,76.21
2023-02-01T08:59:51.056Z,75.72
2023-02-01T09:02:18.543Z,75.58
2023-02-01T09:04:45.273Z,74.94
2023-02-01T09:07:12.280Z,75.50
2023-02-01T09:09:39.561Z,75.01
2023-02-01T09:12:06.531Z,75.40
2023-02-01T09:14:33.307Z,75.63
2023-02-01T09:17:00.146Z,75.89
2023-02-01T09:19:27.423Z,75.52
2023-02-01T09:21:54.337Z,75.25
2023-02-01T09:24:21.018Z,75.52
2023-02-01T09:26:47.693Z,74.92
2023-02-01T09:29:14.469Z,74.81
2023-02-01T09:31:44.107Z,73.39
2023-02-01T09:34:16.464Z,73.19
2023-02-01T09:36:43.138Z,72.39
2023-02-01T09:39:09.815Z,72.97
2023-02-01T09:42:01.476Z,73.15
2023-02-01T09:44:35.665Z,72.66
2023-02-01T09:47:13.079Z,72.47
2023-02-01T09:49:49.877Z,72.51
2023-02-01T09:52:17.322Z,73.27
2023-02-01T09:54:50.483Z,72.41
2023-02-01T09:57:27.015Z,72.75
2023-02-01T10:00:01.986Z,72.05
2023-02-01T10:02:31.607Z,72.13
2023-02-01T10:05:02.391Z,72.65
2023-02-01T10:07:43.883Z,72.88
2023-02-01T10:10:23.178Z,73.03
2023-02-01T10:13:03.747Z,72.49
2023-02-01T10:16:08.428Z,72.15
2023-02-01T10:18:50.364Z,71.66
2023-02-01T10:21:29.011Z,71.43
2023-02-01T10:24:18.836Z,71.10
2023-02-01T10:27:15.616Z,71.86
2023-02-01T10:29:46.896Z,71.96
2023-02-01T10:32:28.600Z,71.46
2023-02-01T10:35:00.804Z,70.79
2023-02-01T10:37:35.185Z,70.75
2023-02-01T10:40:17.635Z,70.49
2023-02-01T10:42:45.237Z,70.43
2023-02-01T10:45:16.864Z,69.84
2023-02-01T10:47:44.053Z,69.39
2023-02-01T10:50:47.484Z,69.78
2023-02-01T12:36:19.011Z,69.34
2023-02-01T12:39:16.725Z,69.30
2023-02-01T12:42:05.050Z,69.37
2023-02-01T12:44:57.602Z,68.63
2023-02-01T12:47:47.945Z,68.08
2023-02-01T12:51:03.205Z,68.03
2023-02-01T12:53:46.978Z,68.25
2023-02-01T12:56:28.948Z,68.54
2023-02-01T12:59:02.098Z,67.91
2023-02-01T13:01:49.821Z,68.22
2023-02-01T13:04:20.337Z,68.24
2023-02-01T13:06:54.509Z,67.43
2023-02-01T13:09:40.672Z,67.05
2023-02-01T13:12:16.716Z,66.67
2023-02-01T13:14:49.342Z,65.62
2023-02-01T13:17:26.089Z,64.40
2023-02-01T13:20:01.736Z,64.07
2023-02-01T13:22:33.373Z,63.08
2023-02-01T13:25:18.719Z,61.46
2023-02-01T13:27:47.554Z,61.65
2023-02-01T13:30:22.741Z,61.17
2023-02-01T13:33:53.108Z,61.15
2023-02-01T13:36:14.002Z,59.55
2023-02-01T13:39:11.048Z,60.16
2023-02-01T13:42:01.269Z,60.62
2023-02-01T13:44:39.154Z,60.89
2023-02-01T13:47:21.803Z,61.33
2023-02-01T13:49:48.585Z,61.67
2023-02-01T13:52:53.627Z,61.92
2023-02-01T13:55:23.400Z,62.06
2023-02-01T13:57:53.459Z,62.52
2023-02-01T14:00:37.031Z,62.62
2023-02-01T14:03:07.019Z,62.98
2023-02-01T14:05:35.456Z,62.78
2023-02-01T14:08:10.945Z,62.61
2023-02-01T14:10:48.398Z,62.50
2023-02-01T14:13:41.278Z,62.47
2023-02-01T14:16:08.147Z,62.81
2023-02-01T14:18:34.792Z,62.86
2023-02-01T14:21:23.792Z,63.22
2023-02-01T14:24:05.883Z,61.81
2023-02-01T14:26:35.828Z,62.59
2023-02-01T14:29:04.894Z,62.69
2023-02-01T14:31:42.013Z,62.89
2023-02-01T14:34:18.187Z,63.16
2023-02-01T14:37:07.489Z,63.11
2023-02-01T14:39:46.269Z,62.43
2023-02-01T14:42:33.924Z,62.63
2023-02-01T14:45:19.498Z,62.98
2023-02-01T14:48:06.377Z,62.69
2023-02-01T14:50:41.204Z,62.54
2023-02-01T14:53:10.904Z,62.39
2023-02-01T14:55:42.995Z,62.62
2023-02-01T14:58:29.855Z,62.95
2023-02-01T15:00:59.910Z,62.80
2023-02-01T15:03:55.578Z,62.47
2023-02-01T15:06:30.783Z,62.90
2023-02-01T15:09:15.737Z,62.66
2023-02-01T15:12:03.738Z,63.03
2023-02-01T15:14:34.022Z,63.18
2023-02-01T15:17:00.918Z,63.25
2023-02-01T15:19:30.137Z,63.44
2023-02-01T15:21:58.603Z,63.68
2023-02-01T15:24:28.096Z,64.17
2023-02-01T15:26:56.605Z,64.43
2023-02-01T15:29:30.410Z,64.37
2023-02-01T15:31:57.188Z,64.74
2023-02-01T15:34:23.811Z,64.58
2023-02-01T15:37:02.593Z,64.84
2023-02-01T15:39:33.164Z,65.40
2023-02-01T15:42:10.403Z,65.31
2023-02-01T15:44:47.184Z,65.38
2023-02-01T15:47:29.572Z,65.71
2023-02-01T15:49:58.935Z,65.87
2023-02-01T15:52:36.397Z,66.01
2023-02-01T15:55:08.693Z,66.51
2023-02-01T15:57:40.567Z,66.10
2023-02-01T16:00:28.636Z,66.23
2023-02-01T16:03:06.556Z,66.60
2023-02-01T16:05:39.331Z,66.77
2023-02-01T16:08:16.069Z,67.12
2023-02-01T16:10:46.515Z,66.88
2023-02-01T16:13:14.489Z,67.12
2023-02-01T16:15:41.343Z,67.59
2023-02-01T16:18:10.609Z,67.84
2023-02-01T16:20:40.054Z,67.91
2023-02-01T16:23:07.841Z,67.82
2023-02-01T16:25:35.001Z,67.53
2023-02-01T16:28:02.138Z,67.98
2023-02-01T16:30:28.743Z,68.49
2023-02-01T16:32:58.657Z,68.23
2023-02-01T16:35:36.891Z,68.13
2023-02-01T16:38:15.500Z,67.78
2023-02-01T16:40:44.367Z,68.37
2023-02-01T16:43:15.698Z,68.39
2023-02-01T16:45:44.773Z,68.52
2023-02-01T16:48:22.129Z,68.37
2023-02-01T16:50:55.645Z,68.52
2023-02-01T16:53:23.932Z,68.48
2023-02-01T16:55:50.897Z,69.03
2023-02-01T16:58:17.920Z,68.73
2023-02-01T17:00:45.692Z,68.72
2023-02-01T17:03:17.528Z,68.26
2023-02-01T17:05:47.323Z,68.60
2023-02-01T17:08:20.372Z,68.24
2023-02-01T17:10:47.097Z,68.52
2023-02-01T17:13:15.765Z,68.15
2023-02-01T17:15:57.724Z,68.41
2023-02-01T17:18:25.991Z,68.55
2023-02-01T17:20:53.145Z,68.80
2023-02-01T17:23:20.744Z,68.54
2023-02-01T17:25:48.505Z,68.18
2023-02-01T17:28:15.099Z,68.22
2023-02-01T17:30:42.384Z,68.09
2023-02-01T17:33:26.409Z,68.06
2023-02-01T17:35:55.477Z,67.87
2023-02-01T17:38:22.447Z,68.08
2023-02-01T17:40:49.099Z,68.23
2023-02-01T17:43:19.021Z,67.55
2023-02-01T17:45:52.640Z,68.27
2023-02-01T17:48:21.407Z,68.02
2023-02-01T17:50:58.564Z,68.02
2023-02-01T17:53:27.528Z,67.90
2023-02-01T17:55:54.777Z,68.12
2023-02-01T17:58:21.891Z,68.23
2023-02-01T18:00:49.682Z,68.31
2023-02-01T18:03:19.049Z,68.35
2023-02-01T18:05:50.999Z,68.28
2023-02-01T18:08:18.197Z,68.99
2023-02-01T18:10:45.001Z,68.42
2023-02-01T18:13:12.744Z,68.92
2023-02-01T18:15:39.906Z,68.30
2023-02-01T18:18:06.976Z,68.63
2023-02-01T18:20:35.751Z,68.87
2023-02-01T18:23:02.813Z,68.96
2023-02-01T18:25:37.128Z,69.04
2023-02-01T18:28:04.313Z,69.30
2023-02-01T18:30:32.902Z,69.26
2023-02-01T18:32:59.735Z,69.85
2023-02-01T18:35:29.032Z,69.45
2023-02-01T18:37:56.602Z,70.36
2023-02-01T18:40:33.662Z,70.25
2023-02-01T18:43:00.758Z,70.46
2023-02-01T18:45:31.380Z,70.26
2023-02-01T18:47:59.741Z,70.83
2023-02-01T18:50:28.720Z,70.57
2023-02-01T18:52:57.021Z,70.63
2023-02-01T18:55:25.215Z,70.86
2023-02-01T18:57:52.554Z,70.99
2023-02-01T19:00:21.184Z,71.17
2023-02-01T19:02:48.732Z,70.95
2023-02-01T19:05:16.545Z,70.82
2023-02-01T19:07:44.546Z,71.09
2023-02-01T19:10:14.735Z,71.14
2023-02-01T19:12:41.389Z,70.61
2023-02-01T19:15:15.986Z,71.45
2023-02-01T19:17:47.949Z,71.14
2023-02-01T19:20:17.365Z,71.33
2023-02-01T19:22:44.640Z,71.43
2023-02-01T19:25:18.465Z,71.40
2023-02-01T19:27:45.072Z,71.25
2023-02-01T19:30:12.903Z,71.32
2023-02-01T19:32:40.411Z,71.22
2023-02-01T19:35:08.564Z,71.10
2023-02-01T19:37:35.362Z,71.33
2023-02-01T19:40:02.261Z,71.09
2023-02-01T19:42:29.047Z,71.26
2023-02-01T19:44:55.690Z,71.38
2023-02-01T19:47:22.275Z,71.55
2023-02-01T19:49:48.939Z,71.73
2023-02-01T19:52:15.524Z,71.53
2023-02-01T19:54:42.206Z,71.53
2023-02-01T19:57:08.795Z,71.74
2023-02-01T19:59:35.496Z,71.41
2023-02-01T20:02:01.243Z,71.98
2023-02-01T20:04:27.838Z,72.12
2023-02-01T20:06:56.309Z,72.33
2023-02-01T20:09:25.901Z,72.53
2023-02-01T20:11:54.275Z,72.28
2023-02-01T20:14:22.331Z,72.60
2023-02-01T20:16:48.900Z,72.79
2023-02-01T20:19:16.664Z,72.79
2023-02-01T20:21:43.738Z,72.70
2023-02-01T20:24:17.342Z,73.13
2023-02-01T20:26:45.907Z,73.62
2023-02-01T20:29:15.547Z,73.64
2023-02-01T20:31:42.145Z,73.31
2023-02-01T20:34:10.285Z,73.72
2023-02-01T20:36:36.981Z,73.81
2023-02-01T20:39:03.981Z,73.76
2023-02-01T20:41:30.604Z,73.77
2023-02-01T20:43:57.186Z,74.09
2023-02-01T20:46:24.366Z,73.83
2023-02-01T20:48:51.487Z,73.94
2023-02-01T20:51:20.460Z,74.08
2023-02-01T20:53:48.635Z,74.08
2023-02-01T20:56:15.938Z,74.32
2023-02-01T20:58:43.801Z,74.63
2023-02-01T21:01:11.522Z,74.47
2023-02-01T21:03:38.929Z,74.51
2023-02-01T21:06:06.477Z,74.44
2023-02-01T21:08:33.714Z,74.87
2023-02-01T21:11:02.639Z,74.61
2023-02-01T21:13:31.403Z,74.78
2023-02-01T21:15:58.590Z,74.30
2023-02-01T21:18:25.270Z,74.22
2023-02-01T21:20:52.133Z,74.48
2023-02-01T21:23:18.967Z,74.57
2023-02-01T21:25:45.665Z,74.65
2023-02-01T21:28:12.411Z,74.71
2023-02-01T21:30:39.568Z,74.79
2023-02-01T21:33:06.395Z,74.82
2023-02-01T21:35:32.949Z,74.54
2023-02-01T21:37:59.565Z,74.83
2023-02-01T21:40:26.110Z,74.94
2023-02-01T21:42:52.689Z,75.13
2023-02-01T21:45:19.791Z,75.16
2023-02-01T21:47:46.796Z,75.04
2023-02-01T21:50:16.994Z,74.83
2023-02-01T21:52:43.935Z,75.33
2023-02-01T21:55:11.825Z,75.02
2023-02-01T21:57:38.802Z,75.21
2023-02-01T22:00:08.762Z,75.34
2023-02-01T22:02:35.868Z,75.34
2023-02-01T22:05:05.323Z,75.87
2023-02-01T22:07:34.753Z,75.69
2023-02-01T22:10:01.874Z,75.65
2023-02-01T22:12:28.669Z,75.66
2023-02-01T22:14:55.227Z,75.66
2023-02-01T22:20:06.664Z,75.79
2023-02-01T22:22:33.214Z,75.92
2023-02-01T22:24:59.860Z,75.54
2023-02-01T22:28:20.410Z,75.37
2023-02-01T22:30:13.506Z,75.74
2023-02-01T22:32:40.053Z,75.87
2023-02-01T22:35:07.351Z,75.82
2023-02-01T22:37:33.930Z,75.66
2023-02-01T22:40:02.313Z,75.77
2023-02-01T22:42:28.829Z,75.93
2023-02-01T22:44:55.416Z,76.23
2023-02-01T22:47:22.070Z,76.10
2023-02-01T22:49:48.589Z,76.45
2023-02-01T22:52:15.137Z,76.25
2023-02-01T22:54:41.910Z,76.17
2023-02-01T22:57:09.005Z,76.06
2023-02-01T22:59:35.543Z,75.94
2023-02-01T23:02:02.247Z,76.40
2023-02-01T23:04:28.794Z,76.48
2023-02-01T23:06:55.317Z,76.47
2023-02-01T23:09:25.448Z,76.17
2023-02-01T23:11:53.296Z,76.68
2023-02-01T23:14:20.320Z,76.30
2023-02-01T23:16:48.577Z,76.19
2023-02-01T23:19:15.651Z,76.15
2023-02-01T23:21:42.339Z,76.15
2023-02-01T23:24:10.482Z,76.04
2023-02-01T23:26:37.622Z,76.47
2023-02-01T23:29:05.235Z,76.19
2023-02-01T23:31:33.672Z,76.25
2023-02-01T23:34:02.096Z,76.59
2023-02-01T23:36:29.441Z,76.44
2023-02-01T23:38:56.408Z,76.51
2023-02-01T23:41:24.345Z,76.40
2023-02-01T23:44:01.230Z,76.46
2023-02-01T23:46:36.005Z,77.17
2023-02-01T23:49:04.419Z,76.94
2023-02-01T23:51:31.702Z,76.85
2023-02-01T23:53:58.793Z,77.11
2023-02-01T23:56:37.283Z,77.48
2023-02-01T23:59:06.598Z,77.34
